Time;durP1;ratioP1;P1;durP2;ratioP2;P2;SDS_P1;SDS_P2;PMS_P1;PMS_P2;Temp;Humidity;BMP_temperature;BMP_pressure;BME280_temperature;BME280_humidity;BME280_pressure;Samples;Min_cycle;Max_cycle;Signal;HPM_P1;HPM_P2
2021/12/28 00:01:28;;;;;;;55.53;27.23;;;-0.10;99.90;;;;;;10327989;28;20263;-80
2021/12/28 00:06:31;;;;;;;50.93;26.93;;;0.20;99.90;;;;;;10312030;28;20239;-80
2021/12/28 00:11:33;;;;;;;47.50;25.67;;;0.10;99.90;;;;;;10327560;28;20238;-80
2021/12/28 00:21:57;;;;;;;41.63;22.17;;;3.50;96.10;;;;;;10327990;28;20287;-80
2021/12/28 00:26:59;;;;;;;50.40;26.67;;;4.00;99.90;;;;;;10327768;28;20249;-80
2021/12/28 00:32:03;;;;;;;50.80;25.37;;;2.10;94.80;;;;;;10310365;28;20249;-80
2021/12/28 00:37:05;;;;;;;55.90;27.37;;;-0.20;99.90;;;;;;10304228;28;20261;-80
2021/12/28 00:42:09;;;;;;;44.97;24.07;;;-1.60;99.90;;;;;;10311815;28;20239;-80
2021/12/28 00:47:11;;;;;;;47.97;23.70;;;1.40;99.90;;;;;;10310652;28;20992;-80
2021/12/28 00:52:14;;;;;;;45.13;23.83;;;3.00;99.90;;;;;;10300902;28;20252;-80
2021/12/28 00:57:16;;;;;;;53.07;27.30;;;1.20;99.90;;;;;;10313523;28;20291;-79
2021/12/28 01:02:19;;;;;;;54.00;26.50;;;1.70;99.90;;;;;;10351051;23;20739;-80
2021/12/28 01:07:22;;;;;;;47.47;26.03;;;2.20;99.20;;;;;;10313356;28;20257;-80
2021/12/28 01:12:25;;;;;;;48.80;25.97;;;2.00;93.30;;;;;;10350366;28;20239;-80
2021/12/28 01:17:27;;;;;;;46.40;23.47;;;1.30;99.90;;;;;;10309293;28;20310;-80
2021/12/28 01:22:30;;;;;;;48.83;25.40;;;1.30;99.90;;;;;;10310288;28;20229;-80
2021/12/28 01:27:33;;;;;;;50.47;27.73;;;3.30;94.10;;;;;;10325203;28;20345;-80
2021/12/28 01:32:36;;;;;;;52.87;27.97;;;1.10;95.80;;;;;;10348681;28;20620;-80
2021/12/28 01:37:38;;;;;;;51.63;25.87;;;-0.10;99.90;;;;;;10325418;28;20251;-80
2021/12/28 01:43:02;;;;;;;47.30;24.20;;;1.40;99.90;;;;;;10326773;28;20291;-80
2021/12/28 01:48:07;;;;;;;45.77;23.73;;;4.40;99.90;;;;;;10326955;28;20239;-80
2021/12/28 01:53:09;;;;;;;49.23;27.10;;;4.70;99.90;;;;;;10364017;28;20675;-80
2021/12/28 01:58:13;;;;;;;43.17;23.53;;;3.80;82.20;;;;;;10329249;28;20251;-80
2021/12/28 02:03:17;;;;;;;50.97;26.20;;;3.00;99.90;;;;;;10355892;28;20235;-80
2021/12/28 02:08:20;;;;;;;50.43;26.60;;;1.00;94.40;;;;;;10374968;28;20641;-79
2021/12/28 02:13:24;;;;;;;46.13;25.40;;;-0.30;99.90;;;;;;10359417;28;20652;-80
2021/12/28 02:18:29;;;;;;;49.53;25.27;;;-0.60;99.90;;;;;;10372447;28;20314;-80
2021/12/28 02:23:31;;;;;;;54.67;25.87;;;0.80;99.90;;;;;;10341207;28;20301;-80
2021/12/28 02:28:34;;;;;;;62.13;27.30;;;1.90;95.80;;;;;;10340469;28;20246;-80
2021/12/28 02:33:38;;;;;;;51.37;28.20;;;1.00;98.00;;;;;;10389262;23;20241;-80
2021/12/28 02:38:41;;;;;;;53.40;27.57;;;-0.90;99.90;;;;;;10355711;28;20728;-80
2021/12/28 02:43:48;;;;;;;56.70;25.50;;;-2.50;99.90;;;;;;10355106;28;20236;-79
2021/12/28 02:48:51;;;;;;;64.97;29.10;;;-1.50;99.90;;;;;;10354346;28;20197;-79
2021/12/28 02:53:54;;;;;;;51.57;25.13;;;-1.30;99.90;;;;;;10370675;28;20263;-80
2021/12/28 02:59:01;;;;;;;54.80;26.30;;;-1.60;99.90;;;;;;10371230;28;20813;-80
2021/12/28 03:04:05;;;;;;;49.50;24.17;;;-0.50;99.90;;;;;;10354712;28;20205;-80
2021/12/28 03:09:07;;;;;;;49.67;26.63;;;1.10;99.90;;;;;;10353494;28;20209;-80
2021/12/28 03:14:10;;;;;;;56.50;28.67;;;1.10;95.70;;;;;;10345156;28;20250;-80
2021/12/28 03:19:13;;;;;;;54.13;27.03;;;0.20;99.90;;;;;;10363744;28;20337;-80
2021/12/28 03:24:18;;;;;;;57.13;29.20;;;3.40;97.70;;;;;;10371901;28;20297;-80
2021/12/28 03:29:21;;;;;;;58.87;28.50;;;3.40;87.90;;;;;;10342734;28;20662;-80
2021/12/28 03:34:24;;;;;;;48.30;25.70;;;1.90;99.90;;;;;;10339146;28;20592;-80
2021/12/28 03:39:26;;;;;;;58.20;27.90;;;3.10;99.90;;;;;;10331322;28;20262;-80
2021/12/28 03:44:29;;;;;;;48.33;26.43;;;1.10;96.30;;;;;;10369148;28;20293;-80
2021/12/28 03:49:31;;;;;;;62.07;27.67;;;3.60;99.90;;;;;;10323226;28;20356;-80
2021/12/28 03:54:34;;;;;;;57.33;27.83;;;3.30;88.90;;;;;;10330160;28;20675;-80
2021/12/28 03:59:38;;;;;;;46.53;23.53;;;1.50;95.40;;;;;;10352559;28;20324;-80
2021/12/28 04:04:40;;;;;;;54.77;27.33;;;1.20;99.90;;;;;;10369611;28;20238;-80
2021/12/28 04:09:58;;;;;;;52.07;28.20;;;0.70;99.90;;;;;;10336655;28;20242;-80
2021/12/28 04:15:00;;;;;;;58.77;27.67;;;0.30;99.90;;;;;;10346353;28;20241;-80
2021/12/28 04:20:17;;;;;;;50.93;26.17;;;-1.20;99.90;;;;;;10346745;28;20671;-80
2021/12/28 04:25:20;;;;;;;50.60;25.50;;;-0.10;99.90;;;;;;10366755;28;20675;-80
2021/12/28 04:30:23;;;;;;;60.93;27.33;;;0.80;99.90;;;;;;10364421;28;20371;-80
2021/12/28 04:35:25;;;;;;;47.93;26.13;;;-0.90;99.90;;;;;;10367422;28;20753;-79
2021/12/28 04:40:28;;;;;;;54.47;26.70;;;0.40;99.90;;;;;;10363855;28;20261;-80
2021/12/28 04:45:31;;;;;;;52.63;26.87;;;0.60;99.90;;;;;;10365795;28;20737;-80
2021/12/28 04:50:38;;;;;;;58.70;28.07;;;-0.30;99.90;;;;;;10356782;28;20247;-80
2021/12/28 04:55:45;;;;;;;55.77;27.33;;;-1.80;99.90;;;;;;10348723;28;20275;-80
2021/12/28 05:00:50;;;;;;;63.27;27.93;;;-0.80;99.90;;;;;;10296096;28;20310;-80
2021/12/28 05:05:53;;;;;;;56.87;26.17;;;-1.30;99.90;;;;;;10314449;28;20888;-80
2021/12/28 05:10:56;;;;;;;51.80;27.13;;;-0.40;99.90;;;;;;10333694;28;20306;-80
2021/12/28 05:15:58;;;;;;;54.17;26.23;;;-0.90;99.90;;;;;;10370114;23;20301;-79
2021/12/28 05:21:01;;;;;;;59.70;26.13;;;0.00;99.90;;;;;;10370539;28;20617;-80
2021/12/28 05:26:03;;;;;;;54.63;25.60;;;1.70;99.90;;;;;;10405310;28;20236;-80
2021/12/28 05:31:06;;;;;;;48.80;23.57;;;1.00;99.90;;;;;;10376223;28;20241;-80
2021/12/28 05:36:08;;;;;;;52.73;26.07;;;1.50;99.90;;;;;;10405303;28;20770;-80
2021/12/28 05:41:11;;;;;;;50.87;26.33;;;3.30;92.70;;;;;;10375948;28;20294;-80
2021/12/28 05:46:14;;;;;;;49.03;25.97;;;1.50;95.00;;;;;;10358692;28;20216;-80
2021/12/28 05:51:16;;;;;;;52.27;27.47;;;-0.90;99.90;;;;;;10357397;28;20213;-80
2021/12/28 05:56:20;;;;;;;48.87;25.93;;;-1.70;99.90;;;;;;10393791;28;20704;-79
2021/12/28 06:01:23;;;;;;;48.60;25.07;;;0.40;99.90;;;;;;10414836;28;20329;-80
2021/12/28 06:06:26;;;;;;;64.60;26.40;;;-1.40;99.90;;;;;;10398319;28;20252;-79
2021/12/28 06:11:32;;;;;;;54.00;25.90;;;-0.80;99.90;;;;;;10397729;28;20240;-80
2021/12/28 06:16:36;;;;;;;44.07;22.60;;;0.00;99.90;;;;;;10392015;28;20564;-80
2021/12/28 06:21:39;;;;;;;44.33;23.87;;;1.70;99.90;;;;;;10356370;28;20282;-80
2021/12/28 06:26:41;;;;;;;45.47;25.13;;;0.50;99.90;;;;;;10388262;28;20277;-79
2021/12/28 06:31:44;;;;;;;45.80;23.10;;;0.30;99.90;;;;;;10397302;28;20240;-80
2021/12/28 06:36:47;;;;;;;48.03;24.57;;;0.00;99.90;;;;;;10373282;28;20304;-80
2021/12/28 06:41:50;;;;;;;47.80;23.90;;;0.70;99.90;;;;;;10357783;28;20292;-80
2021/12/28 06:46:53;;;;;;;41.13;22.53;;;0.60;98.30;;;;;;10404989;28;20234;-80
2021/12/28 06:51:56;;;;;;;42.30;22.30;;;3.40;99.90;;;;;;10378255;28;20242;-80
2021/12/28 06:56:58;;;;;;;44.70;24.03;;;2.40;99.90;;;;;;10380713;28;20273;-80
2021/12/28 07:02:01;;;;;;;59.03;26.63;;;2.30;99.90;;;;;;10366956;28;20255;-80
2021/12/28 07:07:05;;;;;;;46.83;24.43;;;1.30;90.90;;;;;;10384372;28;20238;-80
2021/12/28 07:12:08;;;;;;;44.20;23.87;;;2.00;99.90;;;;;;10365673;28;20658;-80
2021/12/28 07:17:10;;;;;;;46.03;23.93;;;0.40;96.20;;;;;;10364015;28;20285;-81
2021/12/28 07:22:13;;;;;;;46.13;24.73;;;2.20;92.70;;;;;;10364125;28;20262;-80
2021/12/28 07:27:16;;;;;;;40.30;23.87;;;4.20;90.10;;;;;;10357143;28;20363;-80
2021/12/28 07:32:18;;;;;;;46.00;25.33;;;3.10;91.50;;;;;;10369871;28;20277;-80
2021/12/28 07:37:21;;;;;;;42.17;23.87;;;0.80;90.70;;;;;;10371977;28;20228;-80
2021/12/28 07:42:23;;;;;;;44.97;22.73;;;2.80;87.90;;;;;;10385882;28;20256;-80
2021/12/28 07:47:26;;;;;;;46.40;24.80;;;4.40;92.60;;;;;;10382473;28;20306;-80
2021/12/28 07:52:29;;;;;;;47.67;24.23;;;4.60;82.50;;;;;;10347440;28;20266;-80
2021/12/28 07:57:32;;;;;;;45.73;24.97;;;2.30;97.40;;;;;;10379977;28;20297;-79
2021/12/28 08:02:35;;;;;;;44.60;23.33;;;2.90;90.90;;;;;;10386400;28;20325;-80
2021/12/28 08:07:37;;;;;;;50.60;24.43;;;4.10;87.40;;;;;;10410815;28;20284;-80
2021/12/28 08:12:40;;;;;;;46.17;24.50;;;3.60;89.60;;;;;;10370356;28;20235;-80
2021/12/28 08:17:43;;;;;;;47.40;24.77;;;2.60;83.70;;;;;;10391817;28;20752;-80
2021/12/28 08:22:47;;;;;;;46.83;25.50;;;1.30;96.10;;;;;;10363257;28;20258;-80
2021/12/28 08:27:50;;;;;;;48.73;24.50;;;2.90;86.80;;;;;;10400826;28;20208;-80
2021/12/28 08:32:53;;;;;;;48.97;25.67;;;4.60;87.80;;;;;;10392376;28;20640;-80
2021/12/28 08:37:57;;;;;;;47.30;24.37;;;3.40;86.20;;;;;;10357546;28;20564;-81
2021/12/28 08:42:59;;;;;;;48.47;25.73;;;3.20;90.90;;;;;;10381400;28;20250;-79
2021/12/28 08:48:03;;;;;;;55.27;26.57;;;2.40;85.30;;;;;;10386644;28;20267;-79
2021/12/28 08:53:06;;;;;;;54.10;26.30;;;1.80;91.40;;;;;;10394746;28;20213;-84
2021/12/28 08:58:08;;;;;;;51.80;26.03;;;1.70;93.20;;;;;;10400922;28;20231;-79
2021/12/28 09:03:11;;;;;;;55.13;25.60;;;-0.70;96.70;;;;;;10372214;28;20282;-79
2021/12/28 09:08:17;;;;;;;45.27;25.07;;;0.30;99.90;;;;;;10414672;28;20208;-79
2021/12/28 09:13:20;;;;;;;49.70;26.87;;;0.70;99.90;;;;;;10386955;28;20284;-82
2021/12/28 09:18:22;;;;;;;43.93;23.93;;;2.80;95.00;;;;;;10380304;28;20228;-80
2021/12/28 09:23:25;;;;;;;51.97;26.43;;;2.40;98.10;;;;;;10374936;28;20750;-79
2021/12/28 09:28:48;;;;;;;46.60;25.27;;;0.80;92.20;;;;;;10378844;28;20209;-79
2021/12/28 09:33:50;;;;;;;55.40;27.27;;;0.10;95.00;;;;;;10410703;28;20200;-80
2021/12/28 09:38:53;;;;;;;47.13;23.63;;;-0.80;99.90;;;;;;10428457;28;20199;-79
2021/12/28 09:43:55;;;;;;;46.37;24.53;;;1.30;99.90;;;;;;10448361;28;20244;-80
2021/12/28 09:48:58;;;;;;;53.27;27.10;;;1.80;93.50;;;;;;10438405;28;20244;-81
2021/12/28 09:54:01;;;;;;;53.63;27.10;;;2.40;92.80;;;;;;10448461;28;20249;-80
2021/12/28 09:59:05;;;;;;;54.83;26.37;;;1.10;96.40;;;;;;10448222;28;20232;-79
2021/12/28 10:04:07;;;;;;;46.70;26.77;;;0.80;95.30;;;;;;10419480;28;20731;-80
2021/12/28 10:09:19;;;;;;;43.90;23.43;;;0.80;99.90;;;;;;10439740;28;20210;-79
2021/12/28 10:14:28;;;;;;;47.77;24.30;;;1.60;99.90;;;;;;10430544;28;20210;-79
2021/12/28 10:19:32;;;;;;;51.23;27.43;;;1.20;99.90;;;;;;10408695;28;20232;-80
2021/12/28 10:24:35;;;;;;;53.03;28.23;;;0.30;97.40;;;;;;10442578;28;20260;-80
2021/12/28 10:29:38;;;;;;;57.60;27.93;;;0.90;94.90;;;;;;10378868;28;20218;-79
2021/12/28 10:34:55;;;;;;;52.13;28.33;;;1.30;97.00;;;;;;10379906;28;20556;-79
2021/12/28 10:39:59;;;;;;;63.53;29.80;;;2.00;95.70;;;;;;10387522;28;20284;-80
2021/12/28 10:45:05;;;;;;;48.83;24.13;;;2.10;90.80;;;;;;10390390;28;20242;-80
2021/12/28 10:50:21;;;;;;;51.53;27.00;;;1.20;99.90;;;;;;10394593;28;20240;-82
2021/12/28 10:55:26;;;;;;;58.50;29.43;;;1.50;93.30;;;;;;10376659;28;20267;-83
2021/12/28 11:00:30;;;;;;;46.77;23.57;;;1.00;95.10;;;;;;10400615;28;20216;-82
2021/12/28 11:05:34;;;;;;;53.40;29.03;;;0.90;99.90;;;;;;10391540;28;20531;-82
2021/12/28 11:10:44;;;;;;;51.00;29.30;;;2.20;96.30;;;;;;10415483;28;20210;-82
2021/12/28 11:15:48;;;;;;;58.40;29.13;;;2.60;90.40;;;;;;10422824;23;20239;-82
2021/12/28 11:20:53;;;;;;;56.90;27.70;;;0.70;99.80;;;;;;10377400;28;20258;-82
2021/12/28 11:26:07;;;;;;;48.07;25.87;;;2.40;93.90;;;;;;10392899;28;20202;-84
2021/12/28 11:31:22;;;;;;;52.90;28.27;;;1.80;95.50;;;;;;10384753;28;20202;-85
2021/12/28 11:36:29;;;;;;;57.70;30.40;;;0.30;96.50;;;;;;10397724;28;20376;-82
2021/12/28 11:41:32;;;;;;;58.07;28.30;;;2.10;95.00;;;;;;10409074;28;20309;-83
2021/12/28 11:46:35;;;;;;;79.33;42.07;;;1.10;96.60;;;;;;10410780;28;20272;-83
2021/12/28 11:51:39;;;;;;;87.90;45.43;;;1.60;93.80;;;;;;10413520;28;20218;-84
2021/12/28 11:56:46;;;;;;;61.40;30.83;;;1.70;97.30;;;;;;10397354;28;20240;-83
2021/12/28 12:01:57;;;;;;;73.87;32.80;;;3.50;96.80;;;;;;10377551;28;20340;-83
2021/12/28 12:07:14;;;;;;;62.63;28.70;;;2.70;95.00;;;;;;10391090;28;20258;-83
2021/12/28 12:12:19;;;;;;;84.73;34.77;;;2.40;96.70;;;;;;10384020;28;20219;-84
2021/12/28 12:17:30;;;;;;;97.87;40.03;;;2.80;89.90;;;;;;10373468;28;20277;-83
2021/12/28 12:22:39;;;;;;;75.10;30.67;;;0.50;98.20;;;;;;10391556;28;20248;-81
2021/12/28 12:27:58;;;;;;;80.87;35.37;;;2.50;99.90;;;;;;10358194;28;20243;-82
2021/12/28 12:33:06;;;;;;;50.37;25.63;;;1.80;99.90;;;;;;10382814;28;20234;-82
2021/12/28 12:38:11;;;;;;;71.87;34.43;;;3.10;99.90;;;;;;10385997;28;20262;-82
2021/12/28 12:43:14;;;;;;;50.90;26.47;;;3.10;99.90;;;;;;10401218;28;20320;-82
2021/12/28 12:48:33;;;;;;;68.97;33.23;;;3.30;99.90;;;;;;10366950;28;20760;-82
2021/12/28 12:54:06;;;;;;;48.33;26.30;;;2.30;99.70;;;;;;10369145;28;20226;-81
2021/12/28 12:59:29;;;;;;;61.10;31.20;;;4.00;99.90;;;;;;10385172;28;20243;-82
2021/12/28 13:04:32;;;;;;;68.47;33.83;;;4.20;92.70;;;;;;10380674;28;20286;-82
2021/12/28 13:09:37;;;;;;;66.83;32.00;;;1.40;95.90;;;;;;10365088;28;20684;-81
2021/12/28 13:14:40;;;;;;;66.33;32.67;;;1.90;99.90;;;;;;10369480;28;20259;-82
2021/12/28 13:19:56;;;;;;;66.27;33.90;;;1.30;99.00;;;;;;10373565;28;20289;-81
2021/12/28 13:24:59;;;;;;;67.00;35.30;;;2.40;99.90;;;;;;10390601;28;20243;-82
2021/12/28 13:30:04;;;;;;;59.70;29.93;;;1.50;99.90;;;;;;10376754;28;20287;-82
2021/12/28 13:35:22;;;;;;;77.17;35.30;;;0.90;99.90;;;;;;10381098;28;20237;-81
2021/12/28 13:40:27;;;;;;;74.90;34.30;;;1.10;99.90;;;;;;10381964;28;20310;-82
2021/12/28 13:45:38;;;;;;;66.87;31.30;;;0.50;99.90;;;;;;10359619;28;20548;-82
2021/12/28 13:50:44;;;;;;;80.50;34.60;;;1.20;99.90;;;;;;10388774;28;20234;-82
2021/12/28 13:56:13;;;;;;;67.50;32.63;;;1.20;99.90;;;;;;10380499;28;20277;-82
2021/12/28 14:01:28;;;;;;;50.20;27.03;;;0.40;99.90;;;;;;10384475;28;20265;-82
2021/12/28 14:06:34;;;;;;;59.33;30.83;;;1.30;99.90;;;;;;10412691;28;20242;-81
2021/12/28 14:11:46;;;;;;;65.30;30.33;;;1.70;99.90;;;;;;10408884;28;20270;-81
2021/12/28 14:16:54;;;;;;;95.70;42.50;;;1.80;99.90;;;;;;10378559;28;21003;-81
2021/12/28 14:21:57;;;;;;;123.00;58.60;;;0.80;99.90;;;;;;10394368;28;20697;-82
2021/12/28 14:27:00;;;;;;;231.23;96.67;;;1.50;99.90;;;;;;10395703;28;20986;-81
2021/12/28 14:32:12;;;;;;;176.97;81.27;;;1.90;99.90;;;;;;10379726;28;20591;-82
2021/12/28 14:37:22;;;;;;;95.53;45.83;;;1.00;99.90;;;;;;10380370;28;20268;-90
2021/12/28 14:42:30;;;;;;;133.60;53.43;;;4.90;99.90;;;;;;10360607;28;20232;-94
2021/12/28 14:47:34;;;;;;;124.80;54.57;;;3.80;94.10;;;;;;10361185;28;20662;-93
2021/12/28 14:52:39;;;;;;;95.23;43.33;;;2.10;99.90;;;;;;10344886;28;20212;-94
2021/12/28 14:57:45;;;;;;;77.57;39.73;;;2.90;99.60;;;;;;10344483;28;20282;-93
2021/12/28 15:02:58;;;;;;;77.10;36.73;;;3.90;95.90;;;;;;10360907;28;20228;-94
2021/12/28 15:08:10;;;;;;;91.70;43.57;;;3.60;97.40;;;;;;10359582;28;20270;-93
2021/12/28 15:13:22;;;;;;;69.87;37.20;;;3.00;95.90;;;;;;10343784;28;20238;-94
2021/12/28 15:18:25;;;;;;;82.07;37.40;;;3.90;97.20;;;;;;10360284;28;20209;-95
2021/12/28 15:23:28;;;;;;;69.67;34.77;;;4.30;95.20;;;;;;10359607;28;20728;-94
2021/12/28 15:28:30;;;;;;;80.17;38.03;;;4.20;92.20;;;;;;10359698;28;20217;-94
2021/12/28 15:33:33;;;;;;;141.13;61.63;;;5.10;90.80;;;;;;10359227;28;20235;-93
2021/12/28 15:38:37;;;;;;;122.23;47.90;;;2.50;95.80;;;;;;10342668;28;20216;-95
2021/12/28 15:43:41;;;;;;;79.87;37.60;;;3.80;97.00;;;;;;10342522;28;20232;-95
2021/12/28 15:48:44;;;;;;;98.33;50.20;;;3.70;95.30;;;;;;10358947;28;20289;-93
2021/12/28 15:53:46;;;;;;;85.93;40.17;;;3.10;96.10;;;;;;10376154;28;20273;-93
2021/12/28 15:58:49;;;;;;;79.33;39.63;;;2.80;99.90;;;;;;10375763;28;20673;-95
2021/12/28 16:03:52;;;;;;;69.97;33.73;;;1.60;99.90;;;;;;10358248;28;20287;-95
2021/12/28 16:08:55;;;;;;;90.93;42.07;;;3.90;95.60;;;;;;10357907;28;20250;-95
2021/12/28 16:13:59;;;;;;;72.97;35.40;;;4.70;93.90;;;;;;10357483;28;20317;-94
2021/12/28 16:19:02;;;;;;;66.70;34.17;;;4.00;98.40;;;;;;10341543;28;20243;-94
2021/12/28 16:24:05;;;;;;;160.70;67.83;;;5.00;92.60;;;;;;10358226;28;20236;-94
2021/12/28 16:29:07;;;;;;;84.13;38.77;;;4.00;91.90;;;;;;10358295;28;20258;-93
2021/12/28 16:34:11;;;;;;;85.33;41.50;;;2.90;91.70;;;;;;10357930;28;20587;-93
2021/12/28 16:39:16;;;;;;;66.57;36.00;;;2.60;91.80;;;;;;10341297;28;20219;-93
2021/12/28 16:44:18;;;;;;;145.57;62.20;;;1.70;99.00;;;;;;10341328;28;20239;-94
2021/12/28 16:49:26;;;;;;;82.17;39.13;;;3.00;94.40;;;;;;10357854;28;20193;-94
2021/12/28 16:54:29;;;;;;;65.27;32.87;;;1.50;93.60;;;;;;10341306;28;20214;-94
2021/12/28 16:59:33;;;;;;;67.03;33.67;;;1.80;96.10;;;;;;10340674;28;20220;-93
2021/12/28 17:04:36;;;;;;;80.87;40.63;;;2.50;99.90;;;;;;10341171;28;20279;-93
2021/12/28 17:09:38;;;;;;;80.20;37.37;;;3.00;92.90;;;;;;10356777;28;20219;-93
2021/12/28 17:14:40;;;;;;;72.37;35.73;;;2.00;99.90;;;;;;10340054;28;20236;-94
2021/12/28 17:19:43;;;;;;;75.57;34.87;;;1.90;99.90;;;;;;10357455;28;20243;-94
2021/12/28 17:24:46;;;;;;;89.90;40.30;;;0.70;95.70;;;;;;10357304;28;20727;-93
2021/12/28 17:29:48;;;;;;;201.87;80.40;;;0.00;99.90;;;;;;10357520;28;20214;-94
2021/12/28 17:34:53;;;;;;;88.17;39.77;;;-0.60;99.90;;;;;;10353695;28;20682;-82
2021/12/28 17:39:59;;;;;;;73.13;33.20;;;-0.30;99.90;;;;;;10401759;28;20667;-81
2021/12/28 17:45:04;;;;;;;97.50;38.73;;;-0.90;99.90;;;;;;10375259;28;20316;-82
2021/12/28 17:50:10;;;;;;;90.00;42.53;;;0.40;99.90;;;;;;10388353;28;20719;-82
2021/12/28 17:55:13;;;;;;;94.43;40.37;;;2.20;99.90;;;;;;10371624;28;20239;-82
2021/12/28 18:07:09;;;;;;;61.03;31.83;;;0.80;99.90;;;;;;10262818;28;20241;-82
2021/12/28 18:26:45;;;;;;;82.03;37.73;;;0.40;99.90;;;;;;10317599;28;20238;-81
2021/12/28 18:38:48;;;;;;;91.70;40.97;;;1.60;99.90;;;;;;10287000;28;20235;-82
2021/12/28 19:11:31;;;;;;;66.23;34.57;;;3.50;99.90;;;;;;10282830;28;20266;-82
2021/12/28 19:31:15;;;;;;;87.20;40.70;;;2.50;99.90;;;;;;10200546;28;20269;-81
2021/12/28 19:36:21;;;;;;;81.73;38.30;;;0.90;99.90;;;;;;10311610;28;20281;-82
2021/12/28 20:08:48;;;;;;;79.00;38.43;;;1.40;99.90;;;;;;10243930;28;20213;-81
2021/12/28 20:20:51;;;;;;;78.03;35.40;;;2.80;99.90;;;;;;10205007;29;20262;-82
2021/12/28 20:46:35;;;;;;;64.53;33.87;;;3.80;99.90;;;;;;10182149;28;20324;-82
2021/12/28 21:34:24;;;;;;;72.30;37.50;;;2.20;99.90;;;;;;10333654;28;20236;-82
2021/12/28 21:40:13;;;;;;;73.80;37.00;;;2.60;99.90;;;;;;10201532;29;20234;-82
2021/12/28 22:41:25;;;;;;;74.83;35.90;;;2.50;99.90;;;;;;10301913;28;20225;-82
2021/12/28 22:46:27;;;;;;;63.17;30.37;;;2.90;99.90;;;;;;10263454;28;20338;-82
2021/12/28 23:06:38;;;;;;;70.30;34.70;;;3.70;99.90;;;;;;10288920;28;20268;-83
2021/12/28 23:11:43;;;;;;;67.17;36.00;;;2.20;99.90;;;;;;10224660;28;20265;-82
2021/12/28 23:16:45;;;;;;;66.30;33.30;;;3.00;99.90;;;;;;10286793;28;20864;-83
2021/12/28 23:21:49;;;;;;;62.20;31.80;;;3.60;99.90;;;;;;10273350;28;20292;-83
2021/12/28 23:26:51;;;;;;;71.93;32.70;;;4.70;99.90;;;;;;10290501;28;20596;-83
2021/12/28 23:31:56;;;;;;;61.77;32.00;;;4.30;99.90;;;;;;10289900;28;20393;-83
2021/12/28 23:37:02;;;;;;;67.80;33.97;;;4.10;99.90;;;;;;10289924;28;20296;-83
2021/12/28 23:42:05;;;;;;;62.37;30.43;;;3.40;99.10;;;;;;10288684;28;20315;-82
2021/12/28 23:47:09;;;;;;;73.43;32.70;;;2.60;99.90;;;;;;10243031;28;20217;-83
2021/12/28 23:52:12;;;;;;;71.93;35.47;;;2.60;99.90;;;;;;10289517;28;20236;-83
2021/12/28 23:57:15;;;;;;;60.47;32.17;;;3.90;99.90;;;;;;10288407;28;20276;-83
